Bolivia, Illinois
Current Conditions -  °F | °C
As of 10:52 AM on Thursday 23 Oct 2014 (Local Time) from KSPI Reporting Station
Clear Clear  
Wind Chill: 53°   Ceiling: Unl
Heat Index: 53°   Visibility: 10mi
Dew Point: 42°   Wind: 9mph
Humidity: 66%   Direction: 180°S
Pressure: 30.22"   Gusts: NA
Location:  39.766°N, 89.4108°W
Report Text: KSPI 231552Z 18008KT 10SM CLR 12/06 A3022 RMK AO2 SLP235 T01170056
Loading
Personal Weather Stations






























Interactive Weather Map
Tropical Storm Tracking
New forecast layout! Learn more

10-Day Weather Forecast

Advertisements
Track Severe Weather on mobile